Terminal Aerodrome Forecast
Issued by NWS Jackson, MS

Home | Current Version | Previous Version | Text Only | Print | Product List | Glossary On
Versions: 1 2 3 4 5 6 7 8 9 10 11 12 13 14 15
678
FTUS44 KJAN 270527
TAFHBG
TAF
KHBG 270527Z 2706/2806 13007KT P6SM SCT100
     FM271000 14004KT 5SM BR SCT050 SCT100
     FM271200 14006KT 5SM BR VCSH BKN040
     FM271600 18010KT 5SM SHRA VCTS BKN025CB BKN050
     FM272200 17010KT P6SM BKN030 BKN100
     FM280200 16007KT 4SM BR BKN010=

USA.gov is the U.S. government's official web portal to all federal, state and local government web resources and services.